createdAt,value
2022-08-12T00:00:54.350Z,21.58
2022-08-12T00:03:40.215Z,14.73
2022-08-12T00:06:26.678Z,12.90
2022-08-12T00:09:12.080Z,12.20
2022-08-12T00:11:57.378Z,20.02
2022-08-12T00:14:42.778Z,11.77
2022-08-12T00:17:30.659Z,14.07
2022-08-12T00:20:16.167Z,16.23
2022-08-12T00:23:02.752Z,13.48
2022-08-12T00:26:21.215Z,11.85
2022-08-12T00:29:02.407Z,14.38
2022-08-12T00:31:47.688Z,18.58
2022-08-12T00:34:35.228Z,11.88
2022-08-12T00:37:20.723Z,12.38
2022-08-12T00:40:11.103Z,13.15
2022-08-12T00:42:41.653Z,10.82
2022-08-12T00:45:11.263Z,10.95
2022-08-12T00:47:40.545Z,9.52
2022-08-12T00:50:18.028Z,13.45
2022-08-12T00:52:46.724Z,11.70
2022-08-12T00:55:14.954Z,14.15
2022-08-12T00:57:47.877Z,13.82
2022-08-12T01:00:18.767Z,12.07
2022-08-12T01:02:51.552Z,12.85
2022-08-12T01:05:40.697Z,14.77
2022-08-12T01:08:27.265Z,14.63
2022-08-12T01:11:14.796Z,11.15
2022-08-12T01:13:50.469Z,8.82
2022-08-12T01:16:23.095Z,12.50
2022-08-12T01:18:52.728Z,11.80
2022-08-12T01:21:55.063Z,11.75
2022-08-12T01:24:59.202Z,11.27
2022-08-12T01:27:28.543Z,7.85
2022-08-12T01:29:58.743Z,8.70
2022-08-12T01:32:29.934Z,8.77
2022-08-12T01:35:04.321Z,9.05
2022-08-12T01:37:36.625Z,8.30
2022-08-12T01:40:33.339Z,11.05
2022-08-12T01:43:00.969Z,10.57
2022-08-12T01:45:29.934Z,9.63
2022-08-12T01:48:20.441Z,13.38
2022-08-12T01:51:05.254Z,7.38
2022-08-12T01:53:50.433Z,12.90
2022-08-12T01:56:24.061Z,10.63
2022-08-12T01:59:25.051Z,13.30
2022-08-12T02:01:58.073Z,13.07
2022-08-12T02:07:52.633Z,12.00
2022-08-12T02:10:50.084Z,12.98
2022-08-12T02:13:48.966Z,13.77
2022-08-12T02:16:30.361Z,12.32
2022-08-12T02:19:22.002Z,13.68
2022-08-12T02:21:59.779Z,12.65
2022-08-12T02:24:33.266Z,11.20
2022-08-12T02:27:05.481Z,13.00
2022-08-12T02:29:36.023Z,12.37
2022-08-12T02:32:05.473Z,21.83
2022-08-12T02:34:35.436Z,16.92
2022-08-12T02:37:04.137Z,16.05
2022-08-12T02:39:34.588Z,12.38
2022-08-12T02:42:06.926Z,12.50
2022-08-12T02:44:43.435Z,10.30
2022-08-12T02:47:18.320Z,10.23
2022-08-12T02:50:04.347Z,15.27
2022-08-12T02:52:34.181Z,19.90
2022-08-12T02:55:13.732Z,17.25
2022-08-12T02:58:06.714Z,25.38
2022-08-12T03:00:40.487Z,9.50
2022-08-12T03:03:10.182Z,17.77
2022-08-12T03:05:59.098Z,14.68
2022-08-12T03:08:33.194Z,13.57
2022-08-12T03:11:06.262Z,18.30
2022-08-12T03:13:47.293Z,14.90
2022-08-12T03:18:46.254Z,21.63
2022-08-12T03:21:52.843Z,13.60
2022-08-12T03:24:09.340Z,22.95
2022-08-12T03:26:38.526Z,17.88
2022-08-12T03:29:07.726Z,13.85
2022-08-12T03:31:36.998Z,11.80
2022-08-12T03:34:08.218Z,16.67
2022-08-12T03:36:39.233Z,11.07
2022-08-12T03:39:35.810Z,16.05
2022-08-12T03:42:22.296Z,8.57
2022-08-12T03:45:27.676Z,7.50
2022-08-12T03:48:18.752Z,8.63
2022-08-12T03:51:06.447Z,8.32
2022-08-12T03:53:56.407Z,12.48
2022-08-12T03:56:42.269Z,12.95
2022-08-12T03:59:28.065Z,7.93
2022-08-12T04:01:58.413Z,11.90
2022-08-12T04:04:34.212Z,13.20
2022-08-12T04:07:03.891Z,9.48
2022-08-12T04:09:34.692Z,10.20
2022-08-12T04:12:22.400Z,7.50
2022-08-12T04:14:57.730Z,9.55
2022-08-12T04:17:28.947Z,9.20
2022-08-12T04:20:02.713Z,11.23
2022-08-12T04:22:31.227Z,11.13
2022-08-12T04:25:01.718Z,15.38
2022-08-12T04:27:32.308Z,12.18
2022-08-12T04:30:29.373Z,10.98
2022-08-12T04:32:50.920Z,12.02
2022-08-12T04:35:22.350Z,11.52
2022-08-12T04:37:59.194Z,15.38
2022-08-12T04:40:31.893Z,10.90
2022-08-12T04:43:04.617Z,10.20
2022-08-12T04:45:35.664Z,10.50
2022-08-12T04:48:04.122Z,14.02
2022-08-12T04:50:37.261Z,9.60
2022-08-12T04:53:08.683Z,15.15
2022-08-12T04:55:39.022Z,12.20
2022-08-12T04:58:07.566Z,11.60
2022-08-12T05:00:36.987Z,14.90
2022-08-12T05:03:06.292Z,16.17
2022-08-12T05:05:39.803Z,13.25
2022-08-12T05:08:13.225Z,12.77
2022-08-12T05:10:41.643Z,11.43
2022-08-12T05:13:14.583Z,14.30
2022-08-12T05:16:00.247Z,11.80
2022-08-12T05:18:39.383Z,11.32
2022-08-12T05:21:10.324Z,12.13
2022-08-12T05:23:39.387Z,15.32
2022-08-12T05:26:08.219Z,14.45
2022-08-12T05:28:37.099Z,16.10
2022-08-12T05:31:06.156Z,13.40
2022-08-12T05:33:40.444Z,14.85
2022-08-12T05:36:12.685Z,19.13
2022-08-12T05:39:00.505Z,17.87
2022-08-12T05:41:32.064Z,14.20
2022-08-12T05:44:02.222Z,18.35
2022-08-12T05:46:32.174Z,30.08
2022-08-12T05:49:01.777Z,15.65
2022-08-12T05:51:40.513Z,17.80
2022-08-12T05:54:12.376Z,15.48
2022-08-12T05:56:42.136Z,17.80
2022-08-12T05:59:12.167Z,12.50
2022-08-12T06:02:08.956Z,19.45
2022-08-12T06:04:30.202Z,15.30
2022-08-12T06:06:59.845Z,30.70
2022-08-12T06:09:28.796Z,24.23
2022-08-12T06:12:05.582Z,26.27
2022-08-12T06:14:37.727Z,23.25
2022-08-12T06:17:09.573Z,9.60
2022-08-12T06:20:27.071Z,12.38
2022-08-12T06:22:31.016Z,13.10
2022-08-12T06:25:00.483Z,11.98
2022-08-12T06:27:29.006Z,16.35
2022-08-12T06:30:10.301Z,11.95
2022-08-12T06:32:51.940Z,14.35
2022-08-12T06:35:47.685Z,14.52
2022-08-12T06:38:21.397Z,10.57
2022-08-12T06:41:12.571Z,10.88
2022-08-12T06:44:05.958Z,14.85
2022-08-12T06:46:30.948Z,12.30
2022-08-12T06:48:59.819Z,7.75
2022-08-12T06:51:29.505Z,8.73
2022-08-12T06:53:59.476Z,13.23
2022-08-12T06:56:59.748Z,7.57
2022-08-12T06:59:16.042Z,7.70
2022-08-12T07:01:49.726Z,6.55
2022-08-12T07:04:39.826Z,6.85
2022-08-12T07:07:08.931Z,10.30
2022-08-12T07:10:00.073Z,7.60
2022-08-12T07:12:30.346Z,5.72
2022-08-12T07:14:58.614Z,7.50
2022-08-12T07:17:35.886Z,6.60
2022-08-12T07:20:05.602Z,8.95
2022-08-12T07:22:34.325Z,7.95
2022-08-12T07:25:21.307Z,6.38
2022-08-12T07:27:54.469Z,9.20
2022-08-12T07:30:22.889Z,7.35
2022-08-12T07:32:51.463Z,7.70
2022-08-12T07:35:20.316Z,6.18
2022-08-12T07:37:50.156Z,4.25
2022-08-12T07:40:21.130Z,5.65
2022-08-12T07:42:49.548Z,5.65
2022-08-12T07:45:17.791Z,6.03
2022-08-12T07:47:45.675Z,6.28
2022-08-12T07:50:18.888Z,11.90
2022-08-12T07:52:49.573Z,8.00
2022-08-12T07:55:19.669Z,4.05
2022-08-12T07:57:57.846Z,6.93
2022-08-12T08:00:28.067Z,4.47
2022-08-12T08:02:56.527Z,3.63
2022-08-12T08:05:26.846Z,6.88
2022-08-12T08:08:00.973Z,5.07
2022-08-12T08:10:30.600Z,4.85
2022-08-12T08:12:58.811Z,4.72
2022-08-12T08:16:00.559Z,3.65
2022-08-12T08:18:26.446Z,9.50
2022-08-12T08:20:56.071Z,5.13
2022-08-12T08:23:46.330Z,4.60
2022-08-12T08:26:16.432Z,3.72
2022-08-12T08:28:44.508Z,5.85
2022-08-12T08:31:14.193Z,6.25
2022-08-12T08:34:05.038Z,3.95
2022-08-12T08:36:30.596Z,6.47
2022-08-12T08:38:58.953Z,8.52
2022-08-12T08:42:17.368Z,2.90
2022-08-12T08:44:49.763Z,10.48
2022-08-12T08:47:26.509Z,5.70
2022-08-12T08:49:57.391Z,4.20
2022-08-12T08:52:45.515Z,6.18
2022-08-12T08:55:18.634Z,5.72
2022-08-12T08:57:54.070Z,3.55
2022-08-12T09:00:22.695Z,4.82
2022-08-12T09:02:59.255Z,4.25
2022-08-12T09:05:28.219Z,4.30
2022-08-12T09:08:20.820Z,4.82
2022-08-12T09:10:52.554Z,4.88
2022-08-12T09:13:29.116Z,5.22
2022-08-12T09:16:20.017Z,4.18
2022-08-12T09:18:52.159Z,3.08
2022-08-12T09:21:23.159Z,5.43
2022-08-12T09:24:00.419Z,7.68
2022-08-12T09:26:38.093Z,4.47
2022-08-12T09:29:16.111Z,4.25
2022-08-12T09:32:06.409Z,3.70
2022-08-12T09:34:33.942Z,3.00
2022-08-12T09:37:19.371Z,3.50
2022-08-12T09:40:02.465Z,5.90
2022-08-12T09:43:15.524Z,4.72
2022-08-12T09:46:19.707Z,4.18
2022-08-12T09:48:40.148Z,4.57
2022-08-12T09:51:21.893Z,3.13
2022-08-12T09:54:08.732Z,7.00
2022-08-12T09:57:03.078Z,3.70
2022-08-12T10:00:17.196Z,4.75
2022-08-12T10:02:44.168Z,4.47
2022-08-12T10:05:13.130Z,5.90
2022-08-12T10:07:42.699Z,6.43
2022-08-12T10:10:23.938Z,8.60
2022-08-12T10:13:34.691Z,4.60
2022-08-12T10:16:07.137Z,4.53
2022-08-12T10:18:51.872Z,4.03
2022-08-12T10:21:36.079Z,9.63
2022-08-12T10:24:08.468Z,3.28
2022-08-12T10:26:56.118Z,3.28
2022-08-12T10:30:37.939Z,4.80
2022-08-12T10:32:44.157Z,6.65
2022-08-12T10:35:17.498Z,4.82
2022-08-12T10:38:37.407Z,5.15
2022-08-12T10:40:55.729Z,3.70
2022-08-12T10:43:54.878Z,4.75
2022-08-12T10:46:30.712Z,3.67
2022-08-12T10:49:05.531Z,4.25
2022-08-12T10:52:03.628Z,3.70
2022-08-12T10:54:27.888Z,3.70
2022-08-12T10:56:57.785Z,4.03
2022-08-12T11:00:29.059Z,4.65
2022-08-12T11:04:23.366Z,4.75
2022-08-12T11:07:03.760Z,3.30
2022-08-12T11:08:36.752Z,3.80
2022-08-12T11:10:45.663Z,4.70
2022-08-12T11:13:17.626Z,2.85
2022-08-12T11:16:03.492Z,4.87
2022-08-12T11:18:33.657Z,4.90
2022-08-12T11:21:05.732Z,4.22
2022-08-12T11:23:36.936Z,4.13
2022-08-12T11:26:07.951Z,3.10
2022-08-12T11:28:38.287Z,4.82
2022-08-12T11:31:14.184Z,3.60
2022-08-12T11:34:05.997Z,4.05
2022-08-12T11:36:31.586Z,5.18
2022-08-12T11:39:05.083Z,4.20
2022-08-12T11:41:34.521Z,4.57
2022-08-12T11:44:35.032Z,4.22
2022-08-12T11:46:53.300Z,3.33
2022-08-12T11:49:31.693Z,3.75
2022-08-12T11:52:01.971Z,3.33
2022-08-12T11:54:31.906Z,2.78
2022-08-12T11:57:02.373Z,2.92
2022-08-12T12:02:21.345Z,3.13
2022-08-12T12:04:52.868Z,6.40
2022-08-12T12:07:22.866Z,4.00
2022-08-12T12:10:14.133Z,4.82
2022-08-12T12:12:49.654Z,3.60
2022-08-12T12:15:24.843Z,4.43
2022-08-12T12:17:55.871Z,3.47
2022-08-12T12:20:26.020Z,4.22
2022-08-12T12:22:55.833Z,6.07
2022-08-12T12:26:08.376Z,5.07
2022-08-12T12:28:35.251Z,3.15
2022-08-12T12:31:04.266Z,2.80
2022-08-12T12:33:46.107Z,2.50
2022-08-12T12:36:26.414Z,3.42
2022-08-12T12:38:59.895Z,3.97
2022-08-12T12:42:42.084Z,2.67
2022-08-12T12:44:25.480Z,3.03
2022-08-12T12:46:58.243Z,2.45
2022-08-12T12:49:27.470Z,2.03
2022-08-12T12:52:18.731Z,4.63
2022-08-12T12:54:52.680Z,2.67
2022-08-12T12:57:54.171Z,3.05
2022-08-12T13:00:18.373Z,3.70
2022-08-12T13:02:54.092Z,4.82
2022-08-12T13:05:27.581Z,3.22
2022-08-12T13:08:00.717Z,3.67
2022-08-12T13:10:36.712Z,2.78
2022-08-12T13:14:07.967Z,2.47
2022-08-12T13:15:59.432Z,2.05
2022-08-12T13:18:28.777Z,4.07
2022-08-12T13:20:59.473Z,3.97
2022-08-12T13:23:37.007Z,3.80
2022-08-12T13:26:07.601Z,3.80
2022-08-12T13:28:53.091Z,6.00
2022-08-12T13:31:24.866Z,3.55
2022-08-12T13:34:32.984Z,4.18
2022-08-12T13:36:42.136Z,3.85
2022-08-12T13:39:10.860Z,3.15
2022-08-12T13:41:42.071Z,4.55
2022-08-12T13:44:13.033Z,2.05
2022-08-12T13:46:42.328Z,2.30
2022-08-12T13:49:17.647Z,3.88
2022-08-12T13:52:05.349Z,3.47
2022-08-12T13:54:33.849Z,7.97
2022-08-12T13:57:01.892Z,5.63
2022-08-12T13:59:48.730Z,5.38
2022-08-12T14:02:22.738Z,4.00
2022-08-12T14:04:56.453Z,2.35
2022-08-12T14:07:26.308Z,2.40
2022-08-12T14:10:16.451Z,2.60
2022-08-12T14:12:54.492Z,4.30
2022-08-12T14:15:36.546Z,2.40
2022-08-12T14:18:17.551Z,3.28
2022-08-12T14:20:50.672Z,5.68
2022-08-12T14:24:04.049Z,2.65
2022-08-12T14:26:11.800Z,5.65
2022-08-12T14:28:45.483Z,2.50
2022-08-12T14:31:31.734Z,5.28
2022-08-12T14:34:04.917Z,2.03
2022-08-12T14:36:44.228Z,4.03
2022-08-12T14:39:13.547Z,2.90
2022-08-12T14:41:48.453Z,1.90
2022-08-12T14:44:58.106Z,3.55
2022-08-12T14:47:15.364Z,3.38
2022-08-12T14:50:34.081Z,2.15
2022-08-12T14:53:45.815Z,4.22
2022-08-12T14:58:11.708Z,3.53
2022-08-12T15:00:59.043Z,2.85
2022-08-12T15:03:52.344Z,2.67
2022-08-12T15:06:43.540Z,3.90
2022-08-12T15:09:12.201Z,3.33
2022-08-12T15:11:48.748Z,2.45
2022-08-12T15:14:27.518Z,1.98
2022-08-12T15:16:55.723Z,2.88
2022-08-12T15:20:31.725Z,3.33
2022-08-12T15:22:38.561Z,3.85
2022-08-12T15:25:07.637Z,3.30
2022-08-12T15:28:05.313Z,3.55
2022-08-12T15:30:32.581Z,3.45
2022-08-12T15:33:03.319Z,5.70
2022-08-12T15:35:50.410Z,1.58
2022-08-12T15:38:25.198Z,2.50
2022-08-12T15:40:55.145Z,4.55
2022-08-12T15:43:35.479Z,3.13
2022-08-12T15:46:15.424Z,2.42
2022-08-12T15:48:46.807Z,2.70
2022-08-12T15:51:58.666Z,3.25
2022-08-12T15:54:34.521Z,3.17
2022-08-12T15:57:07.721Z,3.70
2022-08-12T15:59:51.540Z,2.75
2022-08-12T16:02:29.431Z,4.25
2022-08-12T16:04:58.226Z,2.08
2022-08-12T16:07:31.160Z,2.15
2022-08-12T16:10:05.500Z,2.17
2022-08-12T16:12:42.140Z,5.47
2022-08-12T16:15:13.215Z,3.42
2022-08-12T16:18:18.595Z,2.80
2022-08-12T16:20:33.466Z,7.55
2022-08-12T16:23:26.135Z,3.15
2022-08-12T16:26:06.291Z,4.03
2022-08-12T16:28:43.767Z,3.88
2022-08-12T16:31:18.714Z,5.38
2022-08-12T16:33:59.048Z,2.65
2022-08-12T16:36:29.889Z,2.90
2022-08-12T16:39:01.212Z,3.30
2022-08-12T16:44:08.497Z,3.00
2022-08-12T16:46:37.786Z,2.58
2022-08-12T16:49:13.041Z,2.70
2022-08-12T16:51:46.434Z,3.25
2022-08-12T16:54:18.557Z,2.40
2022-08-12T16:56:50.934Z,4.00
2022-08-12T16:59:23.933Z,3.70
2022-08-12T17:01:52.106Z,3.92
2022-08-12T17:04:24.327Z,2.45
2022-08-12T17:06:52.831Z,3.00
2022-08-12T17:09:22.782Z,3.42
2022-08-12T17:11:50.719Z,3.15
2022-08-12T17:14:23.167Z,4.53
2022-08-12T17:16:52.575Z,3.60
2022-08-12T17:20:02.638Z,3.20
2022-08-12T17:22:10.765Z,4.28
2022-08-12T17:24:54.618Z,4.90
2022-08-12T17:27:25.089Z,2.53
2022-08-12T17:30:02.742Z,2.88
2022-08-12T17:32:36.739Z,4.80
2022-08-12T17:35:29.869Z,3.38
2022-08-12T17:38:09.345Z,2.25
2022-08-12T17:40:43.184Z,6.10
2022-08-12T17:43:57.485Z,6.13
2022-08-12T17:46:13.201Z,5.57
2022-08-12T17:48:54.903Z,3.72
2022-08-12T17:51:24.335Z,2.67
2022-08-12T17:54:11.317Z,4.90
2022-08-12T17:56:43.477Z,3.15
2022-08-12T17:59:12.791Z,5.45
2022-08-12T18:01:44.346Z,4.00
2022-08-12T18:04:23.431Z,3.00
2022-08-12T18:07:03.096Z,5.35
2022-08-12T18:09:36.065Z,7.93
2022-08-12T18:12:24.658Z,4.60
2022-08-12T18:14:58.323Z,3.00
2022-08-12T18:17:27.272Z,4.10
2022-08-12T18:20:06.961Z,4.32
2022-08-12T18:22:38.671Z,5.82
2022-08-12T18:26:12.099Z,5.60
2022-08-12T18:28:15.776Z,3.05
2022-08-12T18:30:52.202Z,6.85
2022-08-12T18:33:23.707Z,3.63
2022-08-12T18:35:53.784Z,4.90
2022-08-12T18:38:27.612Z,6.32
2022-08-12T18:41:21.332Z,2.80
2022-08-12T18:44:00.024Z,4.45
2022-08-12T18:46:38.690Z,6.50
2022-08-12T18:49:18.220Z,5.80
2022-08-12T18:51:55.585Z,4.20
2022-08-12T18:54:32.373Z,8.23
2022-08-12T18:57:03.804Z,7.05
2022-08-12T19:00:02.265Z,8.13
2022-08-12T19:04:54.628Z,9.32
2022-08-12T19:07:23.980Z,9.68
2022-08-12T19:09:58.293Z,8.70
2022-08-12T19:12:57.574Z,7.97
2022-08-12T19:15:28.101Z,9.63
2022-08-12T19:18:01.041Z,11.90
2022-08-12T19:23:16.076Z,6.18
2022-08-12T19:26:00.235Z,8.90
2022-08-12T19:28:34.546Z,9.45
2022-08-12T19:31:56.632Z,3.90
2022-08-12T19:34:56.352Z,5.70
2022-08-12T19:37:27.228Z,5.13
2022-08-12T19:40:30.786Z,6.57
2022-08-12T19:43:13.308Z,5.72
2022-08-12T19:45:51.239Z,4.38
2022-08-12T19:48:22.357Z,4.47
2022-08-12T19:50:53.127Z,5.85
2022-08-12T19:53:30.005Z,4.00
2022-08-12T19:56:10.415Z,4.40
2022-08-12T19:58:41.755Z,2.97
2022-08-12T20:01:15.090Z,3.05
2022-08-12T20:03:47.985Z,8.25
2022-08-12T20:06:27.680Z,5.18
2022-08-12T20:09:01.040Z,4.63
2022-08-12T20:12:11.083Z,3.72
2022-08-12T20:14:19.704Z,5.55
2022-08-12T20:16:57.593Z,4.40
2022-08-12T20:20:02.739Z,5.93
2022-08-12T20:22:29.591Z,5.00
2022-08-12T20:25:08.966Z,3.83
2022-08-12T20:28:05.655Z,3.67
2022-08-12T20:33:50.264Z,8.52
2022-08-12T20:36:41.590Z,6.97
2022-08-12T20:39:35.947Z,7.10
2022-08-12T20:42:07.337Z,5.45
2022-08-12T20:44:39.693Z,6.38
2022-08-12T20:47:18.355Z,10.23
2022-08-12T20:49:55.260Z,6.30
2022-08-12T20:52:30.517Z,3.78
2022-08-12T20:55:04.504Z,4.40
2022-08-12T20:57:37.862Z,3.22
2022-08-12T21:00:16.693Z,5.13
2022-08-12T21:02:50.047Z,4.70
2022-08-12T21:06:11.875Z,5.93
2022-08-12T21:08:27.395Z,2.80
2022-08-12T21:10:58.934Z,2.83
2022-08-12T21:13:29.525Z,2.78
2022-08-12T21:16:09.917Z,3.78
2022-08-12T21:18:38.557Z,5.90
2022-08-12T21:21:22.854Z,5.63
2022-08-12T21:23:56.473Z,6.45
2022-08-12T21:26:28.146Z,4.90
2022-08-12T21:29:01.576Z,4.90
2022-08-12T21:32:46.911Z,5.15
2022-08-12T21:34:29.417Z,3.97
2022-08-12T21:37:11.935Z,4.97
2022-08-12T21:42:20.999Z,4.75
2022-08-12T21:45:47.857Z,2.95
2022-08-12T21:47:44.953Z,8.32
2022-08-12T21:50:17.890Z,3.95
2022-08-12T21:52:49.282Z,5.03
2022-08-12T21:55:20.504Z,5.35
2022-08-12T21:57:53.662Z,7.25
2022-08-12T22:00:23.800Z,4.03
2022-08-12T22:03:09.556Z,6.47
2022-08-12T22:05:55.641Z,4.38
2022-08-12T22:08:26.178Z,4.55
2022-08-12T22:10:57.239Z,3.05
2022-08-12T22:14:02.126Z,4.07
2022-08-12T22:16:31.033Z,4.55
2022-08-12T22:19:02.631Z,2.67
2022-08-12T22:21:31.707Z,3.88
2022-08-12T22:24:09.619Z,4.90
2022-08-12T22:26:55.257Z,4.07
2022-08-12T22:29:40.530Z,7.38
2022-08-12T22:32:11.571Z,2.15
2022-08-12T22:34:40.253Z,4.55
2022-08-12T22:37:19.986Z,2.55
2022-08-12T22:39:49.308Z,4.22
2022-08-12T22:42:36.214Z,3.60
2022-08-12T22:45:23.264Z,2.88
2022-08-12T22:47:55.441Z,2.72
2022-08-12T22:50:27.792Z,5.63
2022-08-12T22:53:16.746Z,3.00
2022-08-12T22:55:59.235Z,4.43
2022-08-12T22:58:41.215Z,2.58
2022-08-12T23:01:13.836Z,3.38
2022-08-12T23:04:02.996Z,3.60
2022-08-12T23:06:34.763Z,5.00
2022-08-12T23:09:04.284Z,3.25
2022-08-12T23:11:40.561Z,6.72
2022-08-12T23:14:13.559Z,2.78
2022-08-12T23:16:49.680Z,2.80
2022-08-12T23:19:29.669Z,3.30
2022-08-12T23:22:36.115Z,2.47
2022-08-12T23:24:57.484Z,3.58
2022-08-12T23:27:50.824Z,8.57
2022-08-12T23:30:31.040Z,7.43
2022-08-12T23:33:01.689Z,10.57
2022-08-12T23:35:53.550Z,5.20
2022-08-12T23:38:31.513Z,4.07
2022-08-12T23:41:01.897Z,2.50
2022-08-12T23:43:38.807Z,3.40
2022-08-12T23:46:11.437Z,2.50
2022-08-12T23:48:40.915Z,4.40
2022-08-12T23:51:23.762Z,4.05
2022-08-12T23:54:00.324Z,3.85
2022-08-12T23:56:37.714Z,5.97
2022-08-12T23:59:08.633Z,4.85
